Time;durP1;ratioP1;P1;durP2;ratioP2;P2;SDS_P1;SDS_P2;PMS_P1;PMS_P2;Temp;Humidity;BMP_temperature;BMP_pressure;BME280_temperature;BME280_humidity;BME280_pressure;Samples;Min_cycle;Max_cycle;Signal;HPM_P1;HPM_P2
2022/02/06 00:01:45;;;;;;;10.10;9.50;;;3.10;99.90;;;;;;4899167;29;20545;-78
2022/02/06 00:04:14;;;;;;;9.67;9.07;;;3.10;99.90;;;;;;4899238;29;20452;-79
2022/02/06 00:06:40;;;;;;;9.30;8.80;;;3.10;99.90;;;;;;4899071;29;20449;-78
2022/02/06 00:09:08;;;;;;;10.13;9.33;;;3.10;99.90;;;;;;4897889;29;20480;-77
2022/02/06 00:11:35;;;;;;;10.57;9.67;;;3.10;99.90;;;;;;4897769;29;20484;-78
2022/02/06 00:14:02;;;;;;;10.07;9.27;;;3.20;99.90;;;;;;4882205;29;20538;-79
2022/02/06 00:16:29;;;;;;;10.30;9.50;;;3.30;99.90;;;;;;4886906;29;20454;-78
2022/02/06 00:18:55;;;;;;;10.47;9.60;;;3.30;99.90;;;;;;4893352;29;20457;-78
2022/02/06 00:21:24;;;;;;;10.33;9.60;;;3.30;99.90;;;;;;4897467;29;20457;-78
2022/02/06 00:23:53;;;;;;;10.10;9.40;;;3.40;99.90;;;;;;4894610;29;20462;-78
2022/02/06 00:26:29;;;;;;;9.70;9.00;;;3.40;99.90;;;;;;4897607;29;20209;-77
2022/02/06 00:29:11;;;;;;;10.50;9.53;;;3.40;99.90;;;;;;4897192;29;20838;-78
2022/02/06 00:31:51;;;;;;;10.17;9.37;;;3.50;99.90;;;;;;4892374;29;20853;-78
2022/02/06 00:34:45;;;;;;;10.40;9.60;;;3.50;99.90;;;;;;4898688;29;20448;-78
2022/02/06 00:40:00;;;;;;;10.13;9.50;;;3.50;99.90;;;;;;4897421;29;20457;-79
2022/02/06 00:42:27;;;;;;;10.33;9.53;;;3.50;99.90;;;;;;4925881;23;21056;-76
2022/02/06 00:44:56;;;;;;;10.10;9.40;;;3.60;99.90;;;;;;4919415;29;20804;-76
2022/02/06 00:47:23;;;;;;;10.67;9.77;;;3.60;99.90;;;;;;4921473;29;20998;-78
2022/02/06 00:49:50;;;;;;;10.37;9.67;;;3.70;99.90;;;;;;4920636;29;20474;-77
2022/02/06 00:52:25;;;;;;;10.40;9.60;;;3.70;99.90;;;;;;4918843;29;20203;-76
2022/02/06 00:54:52;;;;;;;10.13;9.43;;;3.70;99.90;;;;;;4938011;29;20207;-77
2022/02/06 00:57:18;;;;;;;11.17;9.30;;;3.70;99.90;;;;;;4938123;29;20203;-78
2022/02/06 00:59:45;;;;;;;10.00;9.20;;;3.70;99.90;;;;;;4921561;29;20206;-77
2022/02/06 01:02:12;;;;;;;10.20;9.40;;;3.70;99.90;;;;;;4938940;29;20210;-77
2022/02/06 01:04:39;;;;;;;9.80;9.10;;;3.70;99.90;;;;;;4938751;29;20196;-78
2022/02/06 01:07:06;;;;;;;10.10;9.17;;;3.70;99.90;;;;;;4921315;29;20259;-78
2022/02/06 01:09:34;;;;;;;10.10;9.33;;;3.70;99.90;;;;;;4922013;29;20199;-77
2022/02/06 01:12:01;;;;;;;10.40;9.80;;;3.70;99.90;;;;;;4921453;29;20214;-78
2022/02/06 01:14:41;;;;;;;10.10;9.10;;;3.70;99.90;;;;;;4930773;29;20195;-77
2022/02/06 01:17:19;;;;;;;10.17;9.23;;;3.80;99.90;;;;;;4921268;29;20218;-78
2022/02/06 01:19:58;;;;;;;10.00;9.20;;;3.80;99.90;;;;;;4921105;29;20465;-77
2022/02/06 01:22:28;;;;;;;9.50;8.93;;;3.90;99.90;;;;;;4920046;29;20219;-78
2022/02/06 01:25:04;;;;;;;10.50;9.40;;;3.90;99.90;;;;;;4920675;29;20234;-77
2022/02/06 01:27:45;;;;;;;9.90;9.10;;;3.90;99.90;;;;;;4920450;29;20199;-78
2022/02/06 01:30:17;;;;;;;10.20;9.50;;;3.90;99.90;;;;;;4936190;29;20199;-77
2022/02/06 01:32:51;;;;;;;9.80;9.10;;;3.90;99.90;;;;;;4938243;29;20222;-78
2022/02/06 01:35:26;;;;;;;10.17;9.33;;;3.90;99.90;;;;;;4921276;29;20271;-77
2022/02/06 01:38:02;;;;;;;10.53;9.70;;;3.90;99.90;;;;;;4918522;29;20221;-77
2022/02/06 01:40:38;;;;;;;10.30;9.50;;;3.90;99.90;;;;;;4916209;29;20258;-77
2022/02/06 01:43:08;;;;;;;9.87;9.07;;;3.90;99.90;;;;;;4920587;29;20509;-77
2022/02/06 01:45:56;;;;;;;9.77;9.00;;;3.90;99.90;;;;;;4921299;29;20534;-78
2022/02/06 02:13:47;;;;;;;10.27;9.30;;;3.90;99.90;;;;;;4922018;29;20302;-78
2022/02/06 02:22:08;;;;;;;9.80;9.03;;;3.90;99.90;;;;;;4926508;29;20567;-78
2022/02/06 02:27:43;;;;;;;9.73;9.00;;;4.00;99.90;;;;;;4937273;29;20282;-78
2022/02/06 02:44:44;;;;;;;10.00;9.17;;;4.00;99.90;;;;;;4936615;29;20708;-78
2022/02/06 02:47:11;;;;;;;10.10;9.30;;;4.00;99.90;;;;;;4915128;29;20191;-78
2022/02/06 02:49:39;;;;;;;10.43;9.43;;;4.00;99.90;;;;;;4905352;29;20227;-78
2022/02/06 02:52:13;;;;;;;10.53;9.53;;;4.00;99.90;;;;;;4939309;29;20628;-78
2022/02/06 02:54:43;;;;;;;10.00;9.30;;;4.00;99.90;;;;;;4941034;29;20439;-78
2022/02/06 02:57:19;;;;;;;10.27;9.50;;;4.10;99.90;;;;;;4940142;29;20608;-78
2022/02/06 02:59:59;;;;;;;9.60;8.90;;;4.10;99.90;;;;;;4923564;29;20203;-77
2022/02/06 03:02:25;;;;;;;9.87;9.10;;;4.10;99.90;;;;;;4923893;29;20227;-77
2022/02/06 03:04:55;;;;;;;9.33;8.70;;;4.10;99.90;;;;;;4941387;29;20207;-77
2022/02/06 03:07:23;;;;;;;9.77;9.00;;;4.10;99.90;;;;;;4923592;29;20215;-77
2022/02/06 03:09:51;;;;;;;9.53;8.77;;;4.10;99.90;;;;;;4923054;29;20860;-77
2022/02/06 03:12:24;;;;;;;9.97;9.07;;;4.10;99.90;;;;;;4923295;29;20199;-77
2022/02/06 03:14:58;;;;;;;10.23;9.30;;;4.10;99.90;;;;;;4923078;29;20575;-77
2022/02/06 03:17:34;;;;;;;9.30;8.60;;;4.00;99.90;;;;;;4923080;29;20668;-78
2022/02/06 03:20:07;;;;;;;9.40;8.83;;;4.00;99.90;;;;;;4923471;29;20470;-77
2022/02/06 03:22:38;;;;;;;10.27;9.37;;;4.10;99.90;;;;;;4933330;29;20246;-78
2022/02/06 03:25:16;;;;;;;9.60;8.90;;;4.00;99.90;;;;;;4937339;29;20209;-78
2022/02/06 03:27:43;;;;;;;10.23;9.30;;;4.10;99.90;;;;;;4922706;29;20360;-78
2022/02/06 03:30:11;;;;;;;10.37;9.57;;;4.10;99.90;;;;;;4940411;29;20199;-78
2022/02/06 03:32:38;;;;;;;9.63;8.93;;;4.10;99.90;;;;;;4927344;29;20230;-78
2022/02/06 03:35:05;;;;;;;10.37;9.53;;;4.10;99.90;;;;;;4949074;29;20203;-78
2022/02/06 03:37:32;;;;;;;9.73;8.93;;;4.10;99.90;;;;;;4948841;29;20207;-78
2022/02/06 03:40:01;;;;;;;9.57;8.80;;;4.10;99.90;;;;;;4948863;29;20203;-78
2022/02/06 03:42:34;;;;;;;9.43;8.83;;;4.00;99.90;;;;;;4940178;29;20232;-78
2022/02/06 03:45:05;;;;;;;9.97;9.27;;;4.00;99.90;;;;;;4945611;29;20278;-78
2022/02/06 03:47:46;;;;;;;9.73;8.97;;;4.00;99.90;;;;;;4936991;29;20615;-78
2022/02/06 03:50:15;;;;;;;9.80;9.10;;;4.00;99.90;;;;;;4921090;29;20267;-78
2022/02/06 03:52:46;;;;;;;9.70;8.90;;;4.00;99.90;;;;;;4938070;29;20219;-78
2022/02/06 03:55:19;;;;;;;9.63;9.03;;;4.00;99.90;;;;;;4937678;29;20238;-78
2022/02/06 03:57:47;;;;;;;9.40;8.80;;;4.00;99.90;;;;;;4907925;29;20211;-79
2022/02/06 04:00:15;;;;;;;10.27;9.47;;;4.10;99.90;;;;;;4927671;29;20200;-78
2022/02/06 04:02:42;;;;;;;9.50;8.90;;;4.10;99.90;;;;;;4918211;29;20231;-79
2022/02/06 04:05:10;;;;;;;9.93;9.13;;;4.10;99.90;;;;;;4926680;29;20583;-78
2022/02/06 04:07:36;;;;;;;9.80;9.00;;;4.10;99.90;;;;;;4927948;29;20827;-78
2022/02/06 04:10:08;;;;;;;9.93;9.23;;;4.10;99.90;;;;;;4920960;29;20223;-80
2022/02/06 04:12:37;;;;;;;9.77;9.10;;;4.10;99.90;;;;;;4919681;29;20227;-77
2022/02/06 04:15:12;;;;;;;10.20;9.33;;;4.10;99.90;;;;;;4936380;29;20204;-78
2022/02/06 04:17:46;;;;;;;9.73;9.03;;;4.20;99.90;;;;;;4936888;29;20203;-77
2022/02/06 04:20:12;;;;;;;10.10;9.30;;;4.20;99.90;;;;;;4935055;29;20627;-79
2022/02/06 04:22:39;;;;;;;9.83;9.23;;;4.20;99.90;;;;;;4922439;29;20223;-78
2022/02/06 04:25:07;;;;;;;9.57;8.80;;;4.10;99.90;;;;;;4940024;29;20195;-78
2022/02/06 04:27:34;;;;;;;9.03;8.53;;;4.10;99.90;;;;;;4922878;29;20281;-78
2022/02/06 04:30:00;;;;;;;9.50;8.70;;;4.20;99.90;;;;;;4944636;29;20270;-78
2022/02/06 04:32:28;;;;;;;9.40;8.80;;;4.20;99.90;;;;;;4932222;29;20597;-77
2022/02/06 04:34:56;;;;;;;9.33;8.63;;;4.20;99.90;;;;;;4918740;29;20278;-78
2022/02/06 04:37:30;;;;;;;9.80;8.80;;;4.20;99.90;;;;;;4938934;29;20245;-77
2022/02/06 04:40:08;;;;;;;8.90;8.30;;;4.30;99.90;;;;;;4930050;29;20207;-78
2022/02/06 04:42:56;;;;;;;9.07;8.47;;;4.30;99.90;;;;;;4919666;29;20602;-78
2022/02/06 04:54:02;;;;;;;9.77;9.17;;;4.30;99.90;;;;;;4925772;29;20226;-78
2022/02/06 05:13:31;;;;;;;9.30;8.60;;;4.30;99.90;;;;;;4916048;29;20215;-78
2022/02/06 05:16:12;;;;;;;9.40;8.70;;;4.30;99.90;;;;;;4911702;29;20736;-78
2022/02/06 05:27:22;;;;;;;8.97;8.27;;;4.30;99.90;;;;;;4924944;29;20235;-78
2022/02/06 05:29:59;;;;;;;9.50;8.70;;;4.30;99.90;;;;;;4923462;29;20211;-78
2022/02/06 05:32:34;;;;;;;8.87;8.20;;;4.30;99.90;;;;;;4925537;29;20231;-78
2022/02/06 05:35:02;;;;;;;8.67;8.07;;;4.30;99.90;;;;;;4929852;29;20226;-78
2022/02/06 05:37:30;;;;;;;9.03;8.43;;;4.30;99.90;;;;;;4917935;29;20199;-78
2022/02/06 05:39:57;;;;;;;8.87;8.27;;;4.30;99.90;;;;;;4928251;29;20673;-78
2022/02/06 05:42:24;;;;;;;9.33;8.63;;;4.30;99.90;;;;;;4932554;29;20719;-77
2022/02/06 05:44:55;;;;;;;9.13;8.40;;;4.30;99.90;;;;;;4923647;29;20250;-79
2022/02/06 05:47:22;;;;;;;9.10;8.50;;;4.40;99.90;;;;;;4937704;29;20681;-78
2022/02/06 05:49:49;;;;;;;9.40;8.70;;;4.40;99.90;;;;;;4922169;29;20598;-77
2022/02/06 05:52:16;;;;;;;9.30;8.50;;;4.40;99.90;;;;;;4926623;29;20208;-81
2022/02/06 05:54:45;;;;;;;9.60;8.83;;;4.40;99.90;;;;;;4938829;29;20199;-77
2022/02/06 05:57:12;;;;;;;9.20;8.60;;;4.30;99.90;;;;;;4948706;29;20253;-79
2022/02/06 05:59:39;;;;;;;9.10;8.40;;;4.40;99.90;;;;;;4919911;29;20683;-78
2022/02/06 06:02:09;;;;;;;9.83;8.93;;;4.40;99.90;;;;;;4937177;29;20222;-79
2022/02/06 06:04:36;;;;;;;8.97;8.23;;;4.40;99.90;;;;;;4930475;29;20199;-78
2022/02/06 06:07:04;;;;;;;9.40;8.40;;;4.40;99.90;;;;;;4933032;29;20203;-77
2022/02/06 06:09:31;;;;;;;9.60;8.77;;;4.40;99.90;;;;;;4916285;29;20235;-77
2022/02/06 06:11:59;;;;;;;8.90;8.30;;;4.40;99.90;;;;;;4917115;29;20203;-77
2022/02/06 06:14:29;;;;;;;9.60;8.70;;;4.40;99.90;;;;;;4933862;29;20233;-77
2022/02/06 06:16:56;;;;;;;9.33;8.40;;;4.40;99.90;;;;;;4912767;29;20207;-77
2022/02/06 06:19:23;;;;;;;9.27;8.57;;;4.40;99.90;;;;;;4917307;29;20219;-77
2022/02/06 06:21:54;;;;;;;10.00;9.10;;;4.40;99.90;;;;;;4934841;29;20206;-78
2022/02/06 06:24:22;;;;;;;9.60;8.87;;;4.40;99.90;;;;;;4918665;29;20392;-78
2022/02/06 06:26:49;;;;;;;9.77;8.87;;;4.40;99.90;;;;;;4935727;29;20209;-78
2022/02/06 06:29:18;;;;;;;9.37;8.60;;;4.40;99.90;;;;;;4936139;29;20241;-77
2022/02/06 06:31:45;;;;;;;9.70;9.00;;;4.40;99.90;;;;;;4919605;29;20208;-78
2022/02/06 06:34:12;;;;;;;9.47;8.87;;;4.40;99.90;;;;;;4933507;29;20227;-77
2022/02/06 06:36:38;;;;;;;9.87;9.07;;;4.40;99.90;;;;;;4935095;29;20248;-77
2022/02/06 06:39:06;;;;;;;9.50;8.80;;;4.40;99.90;;;;;;4919344;29;20199;-78
2022/02/06 06:41:33;;;;;;;9.90;9.00;;;4.40;99.90;;;;;;4919491;29;20218;-77
2022/02/06 06:44:00;;;;;;;9.50;8.70;;;4.40;99.90;;;;;;4940738;23;20286;-80
2022/02/06 06:46:28;;;;;;;9.20;8.60;;;4.40;99.90;;;;;;4933392;29;20207;-80
2022/02/06 06:48:55;;;;;;;11.27;10.13;;;4.40;99.90;;;;;;4929911;29;20195;-80
2022/02/06 06:51:22;;;;;;;9.80;9.00;;;4.50;99.90;;;;;;4934257;29;20203;-80
2022/02/06 06:53:51;;;;;;;10.80;9.90;;;4.50;99.90;;;;;;4934103;29;20229;-79
2022/02/06 06:56:26;;;;;;;11.07;9.90;;;4.50;99.90;;;;;;4934351;29;20672;-81
2022/02/06 06:58:53;;;;;;;10.60;9.70;;;4.50;99.90;;;;;;4909680;29;20210;-80
2022/02/06 07:01:44;;;;;;;9.87;9.27;;;4.50;99.90;;;;;;4915914;29;20207;-79
2022/02/06 07:04:12;;;;;;;29.37;11.00;;;4.50;99.90;;;;;;4916635;29;20224;-80
2022/02/06 07:06:39;;;;;;;9.87;9.17;;;4.60;99.90;;;;;;4928726;29;20525;-79
2022/02/06 07:09:06;;;;;;;10.13;9.10;;;4.60;99.90;;;;;;4939117;29;20217;-79
2022/02/06 07:11:37;;;;;;;9.97;9.00;;;4.70;99.90;;;;;;4922002;29;20216;-78
2022/02/06 07:14:04;;;;;;;10.05;9.30;;;4.70;99.90;;;;;;4928908;29;20502;-78
2022/02/06 07:16:31;;;;;;;9.90;9.10;;;4.70;99.90;;;;;;4916356;29;20206;-79
2022/02/06 07:18:58;;;;;;;9.37;8.77;;;4.80;99.90;;;;;;4915780;29;20629;-79
2022/02/06 07:21:27;;;;;;;9.53;8.87;;;4.80;99.90;;;;;;4934734;29;20211;-79
2022/02/06 07:23:54;;;;;;;9.90;9.00;;;4.90;99.90;;;;;;4914826;29;20223;-78
2022/02/06 07:26:21;;;;;;;9.60;8.80;;;4.90;99.90;;;;;;4913578;29;20207;-79
2022/02/06 07:28:50;;;;;;;9.60;8.90;;;5.00;99.90;;;;;;4932153;29;20287;-79
2022/02/06 07:31:17;;;;;;;9.27;8.63;;;5.10;99.90;;;;;;4931305;29;20196;-78
2022/02/06 07:33:44;;;;;;;12.47;8.70;;;5.20;99.90;;;;;;4915471;29;20606;-78
2022/02/06 07:36:10;;;;;;;9.80;9.10;;;5.20;99.90;;;;;;4933644;29;20211;-78
2022/02/06 07:38:39;;;;;;;9.20;8.50;;;5.30;99.90;;;;;;4931391;29;20210;-78
2022/02/06 07:41:06;;;;;;;9.50;8.67;;;5.30;99.90;;;;;;4936230;29;20207;-78
2022/02/06 07:43:33;;;;;;;9.47;8.67;;;5.40;99.90;;;;;;4934972;29;20265;-79
2022/02/06 07:46:01;;;;;;;9.87;9.17;;;5.40;99.90;;;;;;4923413;29;20203;-79
2022/02/06 07:48:28;;;;;;;9.50;8.80;;;5.50;99.90;;;;;;4919036;29;20203;-77
2022/02/06 07:50:54;;;;;;;9.37;8.67;;;5.50;99.90;;;;;;4914738;29;20227;-78
2022/02/06 07:53:21;;;;;;;10.10;8.93;;;5.60;99.90;;;;;;4918775;29;20227;-78
2022/02/06 07:55:50;;;;;;;9.73;9.03;;;5.70;99.90;;;;;;4936864;29;20231;-78
2022/02/06 07:58:16;;;;;;;10.40;9.33;;;5.70;99.90;;;;;;4933766;29;20202;-78
2022/02/06 08:00:43;;;;;;;9.40;8.70;;;5.80;99.90;;;;;;4934806;29;20211;-79
2022/02/06 08:03:10;;;;;;;9.70;8.93;;;5.90;99.90;;;;;;4934739;29;20645;-77
2022/02/06 08:05:37;;;;;;;9.87;8.97;;;6.00;99.90;;;;;;4917466;29;20207;-78
2022/02/06 08:08:11;;;;;;;9.63;8.80;;;6.10;99.90;;;;;;4935850;29;20204;-77
2022/02/06 08:10:38;;;;;;;9.70;8.90;;;6.20;99.90;;;;;;4917588;29;20586;-78
2022/02/06 08:13:10;;;;;;;9.60;8.93;;;6.30;99.90;;;;;;4917253;29;20227;-77
2022/02/06 08:15:37;;;;;;;9.70;8.90;;;6.40;99.90;;;;;;4935049;29;20232;-82
2022/02/06 08:18:04;;;;;;;9.90;9.00;;;6.50;99.90;;;;;;4914635;29;20231;-78
2022/02/06 09:07:35;;;;;;;8.97;8.00;;;7.10;99.90;;;;;;4904840;28;20677;-78
2022/02/06 10:00:53;;;;;;;8.70;8.00;;;7.60;99.90;;;;;;4666898;30;20261;-78
2022/02/06 10:23:32;;;;;;;7.63;7.10;;;8.10;99.90;;;;;;1390426;23;20208;-76
2022/02/06 12:13:27;;;;;;;8.00;7.30;;;8.70;99.90;;;;;;4730058;30;20245;-79
2022/02/06 12:15:57;;;;;;;8.10;7.43;;;8.80;99.90;;;;;;4716238;30;20219;-77
2022/02/06 12:18:25;;;;;;;9.30;8.30;;;8.80;99.90;;;;;;4783349;29;20272;-77
2022/02/06 12:20:56;;;;;;;8.37;7.77;;;8.90;99.90;;;;;;4789786;29;20204;-77
2022/02/06 12:23:41;;;;;;;8.47;7.77;;;8.90;99.90;;;;;;4787337;29;20228;-78
2022/02/06 12:26:45;;;;;;;8.20;7.60;;;8.90;99.90;;;;;;4786193;29;20200;-76
2022/02/06 12:29:17;;;;;;;8.20;7.60;;;9.00;99.90;;;;;;4790796;29;20205;-76
2022/02/06 12:31:59;;;;;;;8.47;7.80;;;8.90;99.90;;;;;;4786985;29;20232;-76
2022/02/06 12:37:28;;;;;;;8.00;7.50;;;9.10;99.90;;;;;;4790460;29;20208;-77
2022/02/06 12:39:57;;;;;;;8.30;7.57;;;9.10;99.90;;;;;;4789453;29;20308;-76
2022/02/06 12:42:30;;;;;;;8.47;7.80;;;9.10;99.90;;;;;;4803999;29;20243;-75
2022/02/06 12:44:58;;;;;;;10.80;8.47;;;9.10;99.90;;;;;;4825134;24;20698;-78
2022/02/06 12:47:27;;;;;;;9.00;8.20;;;9.20;99.90;;;;;;4807731;29;20625;-77
2022/02/06 12:49:55;;;;;;;8.60;7.90;;;9.20;99.90;;;;;;4808160;29;20209;-77
2022/02/06 12:52:24;;;;;;;8.50;7.83;;;9.20;99.90;;;;;;4807873;29;20215;-77
2022/02/06 12:54:51;;;;;;;8.00;7.50;;;9.20;99.90;;;;;;4793460;29;20228;-77
2022/02/06 12:57:20;;;;;;;8.20;7.60;;;9.30;99.90;;;;;;4794443;29;20212;-77
2022/02/06 12:59:49;;;;;;;8.60;8.07;;;9.30;99.90;;;;;;4799869;29;20215;-78
2022/02/06 13:02:23;;;;;;;8.10;7.60;;;9.30;99.90;;;;;;4805856;29;20227;-76
2022/02/06 13:05:10;;;;;;;7.80;7.30;;;9.30;99.90;;;;;;4789799;29;20587;-76
2022/02/06 13:07:46;;;;;;;8.83;8.07;;;9.20;99.90;;;;;;4790530;29;20203;-78
2022/02/06 13:10:27;;;;;;;8.50;7.80;;;9.30;99.90;;;;;;4802643;29;20820;-79
2022/02/06 13:13:50;;;;;;;8.20;7.60;;;9.30;99.90;;;;;;4789720;29;20219;-78
2022/02/06 13:20:26;;;;;;;8.13;7.63;;;9.20;99.90;;;;;;4732992;29;20201;-79
2022/02/06 13:24:04;;;;;;;8.20;7.70;;;9.20;99.90;;;;;;4793864;29;20205;-80
2022/02/06 13:26:57;;;;;;;8.47;7.97;;;9.20;99.90;;;;;;4748660;30;20215;-80
2022/02/06 13:29:35;;;;;;;8.43;7.90;;;9.20;99.90;;;;;;4748877;30;20210;-78
2022/02/06 13:32:13;;;;;;;8.53;8.03;;;9.20;99.90;;;;;;4782413;29;20278;-77
2022/02/06 13:34:51;;;;;;;8.20;7.77;;;9.20;99.90;;;;;;4784566;29;20240;-77
2022/02/06 13:37:26;;;;;;;8.43;7.90;;;9.10;99.90;;;;;;4797310;29;20668;-77
2022/02/06 13:39:55;;;;;;;8.50;8.00;;;9.00;99.90;;;;;;4790790;29;20212;-80
2022/02/06 13:49:18;;;;;;;8.23;7.60;;;9.00;99.90;;;;;;4695176;30;20227;-77
2022/02/06 13:51:47;;;;;;;8.50;7.87;;;9.00;99.90;;;;;;4777938;29;20228;-77
2022/02/06 13:54:16;;;;;;;8.07;7.57;;;8.90;99.90;;;;;;4788878;29;20228;-76
2022/02/06 13:56:45;;;;;;;8.13;7.53;;;8.80;99.90;;;;;;4786928;29;20219;-77
2022/02/06 13:59:14;;;;;;;8.00;7.50;;;8.80;99.90;;;;;;4802480;29;20254;-77
2022/02/06 14:01:43;;;;;;;8.30;7.70;;;8.80;99.90;;;;;;4784630;29;20212;-78
2022/02/06 14:04:22;;;;;;;8.10;7.60;;;8.80;99.90;;;;;;4784969;29;20295;-77
2022/02/06 14:06:54;;;;;;;8.33;7.43;;;8.90;99.90;;;;;;4797220;29;20209;-78
2022/02/06 14:09:29;;;;;;;8.07;7.57;;;8.90;99.90;;;;;;4800283;29;20248;-78
2022/02/06 14:12:01;;;;;;;8.00;7.60;;;8.90;99.90;;;;;;4783259;29;20281;-77
2022/02/06 14:14:29;;;;;;;7.80;7.30;;;8.90;99.90;;;;;;4783696;29;20224;-77
2022/02/06 14:16:58;;;;;;;8.63;8.03;;;8.80;99.90;;;;;;4784404;29;20269;-77
2022/02/06 14:19:37;;;;;;;8.00;7.60;;;8.70;99.90;;;;;;4785095;29;20314;-78
2022/02/06 14:22:05;;;;;;;8.30;7.80;;;8.60;99.90;;;;;;4794864;29;20277;-77
2022/02/06 14:24:48;;;;;;;8.70;8.10;;;8.60;99.90;;;;;;4794180;29;20229;-76
2022/02/06 14:27:25;;;;;;;8.43;7.90;;;8.50;99.90;;;;;;4783485;29;20616;-77
2022/02/06 14:29:59;;;;;;;8.27;7.77;;;8.40;99.90;;;;;;4784595;29;20230;-77
2022/02/06 14:32:25;;;;;;;8.37;7.77;;;8.30;99.90;;;;;;4782843;29;20567;-77
2022/02/06 14:35:09;;;;;;;8.53;7.93;;;8.20;99.90;;;;;;4786767;29;20271;-77
2022/02/06 14:37:47;;;;;;;8.70;8.20;;;8.10;99.90;;;;;;4789624;29;20674;-79
2022/02/06 14:47:04;;;;;;;8.13;7.70;;;8.00;99.90;;;;;;4794896;29;20273;-82
2022/02/06 14:49:32;;;;;;;7.93;7.43;;;7.80;99.90;;;;;;4791951;29;20219;-83
2022/02/06 14:52:08;;;;;;;8.50;8.00;;;7.70;99.90;;;;;;4805503;29;20243;-82
2022/02/06 14:54:47;;;;;;;8.70;8.10;;;7.60;99.90;;;;;;4804228;29;20231;-82
2022/02/06 14:57:16;;;;;;;8.63;8.10;;;7.60;99.90;;;;;;4790645;29;20211;-81
2022/02/06 14:59:43;;;;;;;8.43;8.03;;;7.50;99.90;;;;;;4801903;29;20294;-80
2022/02/06 15:02:10;;;;;;;8.60;8.10;;;7.40;99.90;;;;;;4794306;29;20642;-79
2022/02/06 15:04:37;;;;;;;8.93;8.40;;;7.40;99.90;;;;;;4790224;29;20334;-81
2022/02/06 15:07:11;;;;;;;8.50;8.10;;;7.30;99.90;;;;;;4790775;29;20284;-80
2022/02/06 15:09:43;;;;;;;9.00;8.40;;;7.20;99.90;;;;;;4787899;29;20729;-81
2022/02/06 15:12:47;;;;;;;8.90;8.40;;;7.20;99.90;;;;;;4789742;29;20240;-82
2022/02/06 15:15:46;;;;;;;8.43;7.93;;;7.10;99.90;;;;;;4785329;29;20207;-82
2022/02/06 15:18:52;;;;;;;8.37;7.87;;;7.10;99.90;;;;;;4802830;29;20233;-81
2022/02/06 15:21:36;;;;;;;;;;;;;;;;;;;;;
2022/02/06 15:24:58;;;;;;;8.30;7.80;;;7.00;99.90;;;;;;4808151;29;20233;-80
2022/02/06 15:34:58;;;;;;;7.90;7.50;;;6.70;99.90;;;;;;4754650;29;20237;-81
2022/02/06 15:37:44;;;;;;;7.60;7.20;;;6.60;99.90;;;;;;4791874;29;20221;-81
2022/02/06 15:40:17;;;;;;;8.07;7.57;;;6.60;99.90;;;;;;4790486;29;20260;-80
2022/02/06 15:42:44;;;;;;;8.50;8.00;;;6.60;99.90;;;;;;4791092;29;20213;-80
2022/02/06 15:45:12;;;;;;;8.70;8.20;;;6.60;99.90;;;;;;4793106;29;20260;-80
2022/02/06 15:47:39;;;;;;;8.80;8.20;;;6.50;99.90;;;;;;4806316;29;20308;-80
2022/02/06 15:50:09;;;;;;;8.90;8.30;;;6.50;99.90;;;;;;4799555;29;20214;-80
2022/02/06 15:52:36;;;;;;;8.50;8.10;;;6.50;99.90;;;;;;4816180;29;20229;-81
2022/02/06 15:55:03;;;;;;;9.00;8.50;;;6.40;99.90;;;;;;4800357;29;20233;-79
2022/02/06 15:57:31;;;;;;;8.63;8.00;;;6.40;99.90;;;;;;4800130;29;20206;-80
2022/02/06 15:59:58;;;;;;;8.37;7.87;;;6.40;99.90;;;;;;4800256;29;20628;-80
2022/02/06 16:02:26;;;;;;;8.30;7.80;;;6.40;99.90;;;;;;4808748;29;20201;-78
2022/02/06 16:04:53;;;;;;;8.60;8.10;;;6.30;99.90;;;;;;4795987;30;20719;-80
2022/02/06 16:07:19;;;;;;;8.83;8.30;;;6.30;99.90;;;;;;4795593;29;20214;-82
2022/02/06 16:09:46;;;;;;;8.60;8.10;;;6.30;99.90;;;;;;4794359;29;20213;-83
2022/02/06 16:12:14;;;;;;;9.00;8.40;;;6.30;99.90;;;;;;4792246;29;20225;-83
2022/02/06 16:15:39;;;;;;;9.07;8.47;;;6.20;99.90;;;;;;4794787;29;20378;-81
2022/02/06 16:18:17;;;;;;;8.87;8.37;;;6.20;99.90;;;;;;4790379;29;20379;-82
2022/02/06 16:24:17;;;;;;;8.60;8.10;;;6.20;99.90;;;;;;4773839;29;20248;-82
2022/02/06 16:26:44;;;;;;;9.47;8.87;;;6.10;99.90;;;;;;4787161;29;20228;-81
2022/02/06 16:29:11;;;;;;;8.90;8.40;;;6.10;99.90;;;;;;4789396;29;20209;-81
2022/02/06 16:31:43;;;;;;;9.40;8.80;;;6.10;99.90;;;;;;4804625;29;20289;-80
2022/02/06 16:34:29;;;;;;;9.10;8.60;;;6.10;99.90;;;;;;4803511;29;20233;-81
2022/02/06 16:37:21;;;;;;;9.00;8.50;;;6.10;99.90;;;;;;4783477;29;20201;-81
2022/02/06 16:39:52;;;;;;;9.30;8.80;;;6.10;99.90;;;;;;4787395;29;20212;-82
2022/02/06 16:42:42;;;;;;;9.70;9.10;;;6.10;99.90;;;;;;4789161;29;20205;-82
2022/02/06 16:45:21;;;;;;;9.30;8.80;;;6.10;99.90;;;;;;4800031;29;20232;-84
2022/02/06 16:48:04;;;;;;;9.17;8.67;;;6.20;99.90;;;;;;4787559;29;20212;-81
2022/02/06 16:50:49;;;;;;;9.30;8.80;;;6.20;99.90;;;;;;4789573;29;20216;-83
2022/02/06 16:53:32;;;;;;;9.70;9.10;;;6.20;99.90;;;;;;4794640;29;20216;-83
2022/02/06 16:56:00;;;;;;;9.10;8.60;;;6.20;99.90;;;;;;4790252;29;20223;-80
2022/02/06 16:58:28;;;;;;;9.10;8.60;;;6.20;99.90;;;;;;4805959;29;20229;-80
2022/02/06 17:00:57;;;;;;;10.10;9.40;;;6.20;99.90;;;;;;4792689;29;20209;-81
2022/02/06 17:03:26;;;;;;;9.83;9.20;;;6.20;99.90;;;;;;4805715;29;20301;-80
2022/02/06 17:05:53;;;;;;;9.60;9.10;;;6.20;99.90;;;;;;4805517;29;20213;-82
2022/02/06 17:08:26;;;;;;;9.67;9.07;;;6.30;99.90;;;;;;4794226;29;20710;-82
2022/02/06 17:10:52;;;;;;;9.77;9.20;;;6.30;99.90;;;;;;4791371;29;20295;-80
2022/02/06 17:13:20;;;;;;;10.07;9.30;;;6.30;99.90;;;;;;4799114;29;20227;-82
2022/02/06 17:15:47;;;;;;;9.53;9.03;;;6.30;99.90;;;;;;4796802;29;20205;-79
2022/02/06 17:18:24;;;;;;;9.50;9.00;;;6.30;99.90;;;;;;4785829;29;20209;-81
2022/02/06 17:21:02;;;;;;;9.83;9.33;;;6.40;99.90;;;;;;4798945;29;20201;-81
2022/02/06 17:23:35;;;;;;;9.77;9.20;;;6.40;99.90;;;;;;4789322;29;20228;-83
2022/02/06 17:26:10;;;;;;;10.20;9.60;;;6.40;99.90;;;;;;4802710;29;20651;-84
2022/02/06 17:28:40;;;;;;;9.73;9.23;;;6.50;99.90;;;;;;4785553;29;20208;-84
2022/02/06 17:31:07;;;;;;;10.17;9.50;;;6.50;99.90;;;;;;4791857;29;20220;-80
2022/02/06 17:33:35;;;;;;;10.10;9.50;;;6.50;99.90;;;;;;4804577;29;20240;-82
2022/02/06 17:36:03;;;;;;;10.20;9.60;;;6.50;99.90;;;;;;4797373;29;20237;-81
2022/02/06 17:38:30;;;;;;;11.43;10.63;;;6.50;99.90;;;;;;4797304;29;20243;-82
2022/02/06 17:41:01;;;;;;;10.40;9.80;;;6.50;99.90;;;;;;4789691;29;20232;-83
2022/02/06 17:43:28;;;;;;;10.33;9.73;;;6.50;99.90;;;;;;4787837;29;20295;-82
2022/02/06 17:45:56;;;;;;;10.63;10.03;;;6.50;99.90;;;;;;4792895;29;20300;-80
2022/02/06 17:48:23;;;;;;;10.20;9.60;;;6.50;99.90;;;;;;4793772;29;20233;-81
2022/02/06 17:50:53;;;;;;;10.77;10.17;;;6.60;99.90;;;;;;4791579;29;20587;-81
2022/02/06 17:53:21;;;;;;;9.70;9.20;;;6.50;99.90;;;;;;4802320;29;20236;-81
2022/02/06 17:55:48;;;;;;;10.20;9.60;;;6.50;99.90;;;;;;4788616;29;20224;-81
2022/02/06 17:58:15;;;;;;;9.47;8.97;;;6.50;99.90;;;;;;4803410;29;20209;-81
2022/02/06 18:00:42;;;;;;;9.70;9.20;;;6.50;99.90;;;;;;4796419;29;20685;-81
2022/02/06 18:03:10;;;;;;;10.13;9.53;;;6.50;99.90;;;;;;4789883;29;20244;-82
2022/02/06 18:05:36;;;;;;;10.03;9.37;;;6.50;99.90;;;;;;4787905;29;20612;-82
2022/02/06 18:08:04;;;;;;;10.03;9.43;;;6.50;99.90;;;;;;4791401;29;20209;-80
2022/02/06 18:10:32;;;;;;;9.77;9.27;;;6.50;99.90;;;;;;4791702;29;20205;-80
2022/02/06 18:12:59;;;;;;;9.70;9.10;;;6.50;99.90;;;;;;4796193;29;20240;-82
2022/02/06 18:15:26;;;;;;;9.90;9.30;;;6.50;99.90;;;;;;4784280;29;20280;-82
2022/02/06 18:17:52;;;;;;;10.00;9.40;;;6.50;99.90;;;;;;4791332;29;20207;-83
2022/02/06 18:20:19;;;;;;;9.83;9.30;;;6.50;99.90;;;;;;4801485;29;20213;-81
2022/02/06 18:22:50;;;;;;;9.90;9.30;;;6.50;99.90;;;;;;4787495;29;20211;-83
2022/02/06 18:25:17;;;;;;;10.60;9.90;;;6.60;99.90;;;;;;4791079;29;20284;-81
2022/02/06 18:27:46;;;;;;;9.90;9.30;;;6.60;99.90;;;;;;4791823;29;20255;-81
2022/02/06 18:30:13;;;;;;;9.70;9.20;;;6.60;99.90;;;;;;4793221;29;20252;-81
2022/02/06 18:32:40;;;;;;;10.20;9.60;;;6.60;99.90;;;;;;4787668;29;20274;-81
2022/02/06 18:35:08;;;;;;;9.80;9.30;;;6.60;99.90;;;;;;4789025;29;20227;-81
2022/02/06 18:37:35;;;;;;;9.93;9.33;;;6.70;99.90;;;;;;4791501;29;20266;-80
2022/02/06 18:40:02;;;;;;;9.70;9.20;;;6.60;99.90;;;;;;4788954;29;20207;-80
2022/02/06 18:42:28;;;;;;;10.07;9.50;;;6.70;99.90;;;;;;4790569;29;20497;-82
2022/02/06 18:44:57;;;;;;;9.60;9.10;;;6.70;99.90;;;;;;4819795;24;20237;-78
2022/02/06 18:47:28;;;;;;;10.40;9.80;;;6.60;99.90;;;;;;4801854;29;20219;-79
2022/02/06 18:49:55;;;;;;;10.00;9.50;;;6.70;99.90;;;;;;4804746;29;20212;-81
2022/02/06 18:52:22;;;;;;;10.20;9.60;;;6.60;99.90;;;;;;4816902;29;20224;-78
2022/02/06 18:54:49;;;;;;;10.10;9.40;;;6.70;99.90;;;;;;4805831;29;20225;-79
2022/02/06 18:57:18;;;;;;;14.80;13.60;;;6.70;99.90;;;;;;4806613;29;20711;-78
2022/02/06 18:59:46;;;;;;;24.50;20.03;;;6.70;99.90;;;;;;4807142;29;20205;-79
2022/02/06 19:02:14;;;;;;;9.33;8.83;;;6.70;99.90;;;;;;4806757;29;20213;-77